sensor_id;sensor_type;location;lat;lon;timestamp;temperature;humidity
49224;DHT22;35050;51.316;5.994;2023-05-07T00:02:02;16.50;99.90
49224;DHT22;35050;51.316;5.994;2023-05-07T00:04:29;16.60;99.90
49224;DHT22;35050;51.316;5.994;2023-05-07T00:07:01;16.50;99.90
49224;DHT22;35050;51.316;5.994;2023-05-07T00:09:27;16.40;99.90
49224;DHT22;35050;51.316;5.994;2023-05-07T00:11:52;16.50;99.90
49224;DHT22;35050;51.316;5.994;2023-05-07T00:14:18;16.50;99.90
49224;DHT22;35050;51.316;5.994;2023-05-07T00:16:44;16.50;99.90
49224;DHT22;35050;51.316;5.994;2023-05-07T00:19:09;16.50;99.90
49224;DHT22;35050;51.316;5.994;2023-05-07T00:21:35;16.50;99.90
49224;DHT22;35050;51.316;5.994;2023-05-07T00:24:01;16.60;99.90
49224;DHT22;35050;51.316;5.994;2023-05-07T00:26:26;16.60;99.90
49224;DHT22;35050;51.316;5.994;2023-05-07T00:28:52;16.60;99.90
49224;DHT22;35050;51.316;5.994;2023-05-07T00:31:18;16.60;99.90
49224;DHT22;35050;51.316;5.994;2023-05-07T00:33:43;16.50;99.90
49224;DHT22;35050;51.316;5.994;2023-05-07T00:36:09;16.50;99.90
49224;DHT22;35050;51.316;5.994;2023-05-07T00:38:35;16.40;99.90
49224;DHT22;35050;51.316;5.994;2023-05-07T00:41:00;16.40;99.90
49224;DHT22;35050;51.316;5.994;2023-05-07T00:43:27;16.40;99.90
49224;DHT22;35050;51.316;5.994;2023-05-07T00:45:53;16.40;99.90
49224;DHT22;35050;51.316;5.994;2023-05-07T00:48:19;16.40;99.90
49224;DHT22;35050;51.316;5.994;2023-05-07T00:50:45;16.40;99.90
49224;DHT22;35050;51.316;5.994;2023-05-07T00:53:12;16.40;99.90
49224;DHT22;35050;51.316;5.994;2023-05-07T00:55:38;16.50;99.90
49224;DHT22;35050;51.316;5.994;2023-05-07T00:58:04;16.50;99.90
49224;DHT22;35050;51.316;5.994;2023-05-07T01:00:31;16.50;99.90
49224;DHT22;35050;51.316;5.994;2023-05-07T01:02:57;16.50;99.90
49224;DHT22;35050;51.316;5.994;2023-05-07T01:05:24;16.50;99.90
49224;DHT22;35050;51.316;5.994;2023-05-07T01:07:53;16.40;99.90
49224;DHT22;35050;51.316;5.994;2023-05-07T01:10:19;16.40;99.90
49224;DHT22;35050;51.316;5.994;2023-05-07T01:12:46;16.40;99.90
49224;DHT22;35050;51.316;5.994;2023-05-07T01:15:14;16.30;99.90
49224;DHT22;35050;51.316;5.994;2023-05-07T01:17:41;16.40;99.90
49224;DHT22;35050;51.316;5.994;2023-05-07T01:20:08;16.40;99.90
49224;DHT22;35050;51.316;5.994;2023-05-07T01:22:40;16.40;99.90
49224;DHT22;35050;51.316;5.994;2023-05-07T01:25:06;16.40;99.90
49224;DHT22;35050;51.316;5.994;2023-05-07T01:27:33;16.30;99.90
49224;DHT22;35050;51.316;5.994;2023-05-07T01:30:01;16.30;99.90
49224;DHT22;35050;51.316;5.994;2023-05-07T01:32:36;16.30;99.90
49224;DHT22;35050;51.316;5.994;2023-05-07T01:35:05;16.30;99.90
49224;DHT22;35050;51.316;5.994;2023-05-07T01:37:31;16.20;99.90
49224;DHT22;35050;51.316;5.994;2023-05-07T01:39:57;16.20;99.90
49224;DHT22;35050;51.316;5.994;2023-05-07T01:42:23;16.20;99.90
49224;DHT22;35050;51.316;5.994;2023-05-07T01:44:49;16.20;99.90
49224;DHT22;35050;51.316;5.994;2023-05-07T01:47:14;16.30;99.90
49224;DHT22;35050;51.316;5.994;2023-05-07T01:49:42;16.20;99.90
49224;DHT22;35050;51.316;5.994;2023-05-07T01:52:09;16.20;99.90
49224;DHT22;35050;51.316;5.994;2023-05-07T01:54:35;16.10;99.90
49224;DHT22;35050;51.316;5.994;2023-05-07T01:57:01;16.10;99.90
49224;DHT22;35050;51.316;5.994;2023-05-07T01:59:27;16.20;99.90
49224;DHT22;35050;51.316;5.994;2023-05-07T02:01:52;16.20;99.90
49224;DHT22;35050;51.316;5.994;2023-05-07T02:04:18;16.20;99.90
49224;DHT22;35050;51.316;5.994;2023-05-07T02:06:44;16.10;99.90
49224;DHT22;35050;51.316;5.994;2023-05-07T02:09:09;16.20;99.90
49224;DHT22;35050;51.316;5.994;2023-05-07T02:11:35;16.10;99.90
49224;DHT22;35050;51.316;5.994;2023-05-07T02:14:01;16.10;99.90
49224;DHT22;35050;51.316;5.994;2023-05-07T02:16:26;16.10;99.90
49224;DHT22;35050;51.316;5.994;2023-05-07T02:18:52;16.10;99.90
49224;DHT22;35050;51.316;5.994;2023-05-07T02:21:18;16.10;99.90
49224;DHT22;35050;51.316;5.994;2023-05-07T02:23:43;16.00;99.90
49224;DHT22;35050;51.316;5.994;2023-05-07T02:26:09;16.00;99.90
49224;DHT22;35050;51.316;5.994;2023-05-07T02:28:34;16.00;99.90
49224;DHT22;35050;51.316;5.994;2023-05-07T02:31:05;16.00;99.90
49224;DHT22;35050;51.316;5.994;2023-05-07T02:33:31;16.00;99.90
49224;DHT22;35050;51.316;5.994;2023-05-07T02:36:00;16.00;99.90
49224;DHT22;35050;51.316;5.994;2023-05-07T02:38:30;16.10;99.90
49224;DHT22;35050;51.316;5.994;2023-05-07T02:40:55;16.10;99.90
49224;DHT22;35050;51.316;5.994;2023-05-07T02:43:21;16.10;99.90
49224;DHT22;35050;51.316;5.994;2023-05-07T02:45:46;16.00;99.90
49224;DHT22;35050;51.316;5.994;2023-05-07T02:48:12;16.10;99.90
49224;DHT22;35050;51.316;5.994;2023-05-07T02:50:37;16.00;99.90
49224;DHT22;35050;51.316;5.994;2023-05-07T02:53:03;16.10;99.90
49224;DHT22;35050;51.316;5.994;2023-05-07T02:55:29;16.10;99.90
49224;DHT22;35050;51.316;5.994;2023-05-07T02:57:54;16.10;99.90
49224;DHT22;35050;51.316;5.994;2023-05-07T03:00:20;16.10;99.90
49224;DHT22;35050;51.316;5.994;2023-05-07T03:02:46;16.00;99.90
49224;DHT22;35050;51.316;5.994;2023-05-07T03:05:12;16.00;99.90
49224;DHT22;35050;51.316;5.994;2023-05-07T03:07:39;16.00;99.90
49224;DHT22;35050;51.316;5.994;2023-05-07T03:10:05;15.90;99.90
49224;DHT22;35050;51.316;5.994;2023-05-07T03:12:31;15.90;99.90
49224;DHT22;35050;51.316;5.994;2023-05-07T03:14:57;15.90;99.90
49224;DHT22;35050;51.316;5.994;2023-05-07T03:17:22;15.90;99.90
49224;DHT22;35050;51.316;5.994;2023-05-07T03:19:48;15.90;99.90
49224;DHT22;35050;51.316;5.994;2023-05-07T03:22:14;15.80;99.90
49224;DHT22;35050;51.316;5.994;2023-05-07T03:24:40;15.90;99.90
49224;DHT22;35050;51.316;5.994;2023-05-07T03:27:05;15.90;99.90
49224;DHT22;35050;51.316;5.994;2023-05-07T03:29:31;15.90;99.90
49224;DHT22;35050;51.316;5.994;2023-05-07T03:31:56;15.90;99.90
49224;DHT22;35050;51.316;5.994;2023-05-07T03:34:22;15.90;99.90
49224;DHT22;35050;51.316;5.994;2023-05-07T03:36:51;15.80;99.90
49224;DHT22;35050;51.316;5.994;2023-05-07T03:39:16;15.90;99.90
49224;DHT22;35050;51.316;5.994;2023-05-07T03:41:42;15.80;99.90
49224;DHT22;35050;51.316;5.994;2023-05-07T03:44:08;15.90;99.90
49224;DHT22;35050;51.316;5.994;2023-05-07T03:46:34;15.90;99.90
49224;DHT22;35050;51.316;5.994;2023-05-07T03:49:00;15.80;99.90
49224;DHT22;35050;51.316;5.994;2023-05-07T03:51:25;15.80;99.90
49224;DHT22;35050;51.316;5.994;2023-05-07T03:53:51;15.80;99.90
49224;DHT22;35050;51.316;5.994;2023-05-07T03:56:22;15.80;99.90
49224;DHT22;35050;51.316;5.994;2023-05-07T03:58:48;15.70;99.90
49224;DHT22;35050;51.316;5.994;2023-05-07T04:01:14;15.70;99.90
49224;DHT22;35050;51.316;5.994;2023-05-07T04:03:39;15.70;99.90
49224;DHT22;35050;51.316;5.994;2023-05-07T04:06:05;15.70;99.90
49224;DHT22;35050;51.316;5.994;2023-05-07T04:08:31;15.70;99.90
49224;DHT22;35050;51.316;5.994;2023-05-07T04:10:57;15.70;99.90
49224;DHT22;35050;51.316;5.994;2023-05-07T04:13:23;15.80;99.90
49224;DHT22;35050;51.316;5.994;2023-05-07T04:15:49;15.70;99.90
49224;DHT22;35050;51.316;5.994;2023-05-07T04:18:15;15.70;99.90
49224;DHT22;35050;51.316;5.994;2023-05-07T04:20:40;15.60;99.90
49224;DHT22;35050;51.316;5.994;2023-05-07T04:23:07;15.50;99.90
49224;DHT22;35050;51.316;5.994;2023-05-07T04:25:32;15.60;99.90
49224;DHT22;35050;51.316;5.994;2023-05-07T04:27:58;15.70;99.90
49224;DHT22;35050;51.316;5.994;2023-05-07T04:30:24;15.60;99.90
49224;DHT22;35050;51.316;5.994;2023-05-07T04:32:50;15.60;99.90
49224;DHT22;35050;51.316;5.994;2023-05-07T04:35:15;15.60;99.90
49224;DHT22;35050;51.316;5.994;2023-05-07T04:37:41;15.70;99.90
49224;DHT22;35050;51.316;5.994;2023-05-07T04:40:07;15.70;99.90
49224;DHT22;35050;51.316;5.994;2023-05-07T04:42:33;15.80;99.90
49224;DHT22;35050;51.316;5.994;2023-05-07T04:44:58;15.80;99.90
49224;DHT22;35050;51.316;5.994;2023-05-07T04:47:24;15.80;99.90
49224;DHT22;35050;51.316;5.994;2023-05-07T04:49:49;15.80;99.90
49224;DHT22;35050;51.316;5.994;2023-05-07T04:52:15;15.80;99.90
49224;DHT22;35050;51.316;5.994;2023-05-07T04:54:42;15.90;99.90
49224;DHT22;35050;51.316;5.994;2023-05-07T04:57:07;16.00;99.90
49224;DHT22;35050;51.316;5.994;2023-05-07T04:59:33;16.00;99.90
49224;DHT22;35050;51.316;5.994;2023-05-07T05:01:59;16.10;99.90
49224;DHT22;35050;51.316;5.994;2023-05-07T05:04:24;16.00;99.90
49224;DHT22;35050;51.316;5.994;2023-05-07T05:06:51;16.00;99.90
49224;DHT22;35050;51.316;5.994;2023-05-07T05:09:16;16.10;99.90
49224;DHT22;35050;51.316;5.994;2023-05-07T05:11:42;16.10;99.90
49224;DHT22;35050;51.316;5.994;2023-05-07T05:14:07;16.00;99.90
49224;DHT22;35050;51.316;5.994;2023-05-07T05:16:33;16.00;99.90
49224;DHT22;35050;51.316;5.994;2023-05-07T05:18:59;16.10;99.90
49224;DHT22;35050;51.316;5.994;2023-05-07T05:21:25;16.10;99.90
49224;DHT22;35050;51.316;5.994;2023-05-07T05:23:50;16.20;99.90
49224;DHT22;35050;51.316;5.994;2023-05-07T05:26:17;16.30;99.90
49224;DHT22;35050;51.316;5.994;2023-05-07T05:28:43;16.30;99.90
49224;DHT22;35050;51.316;5.994;2023-05-07T05:31:08;16.20;99.90
49224;DHT22;35050;51.316;5.994;2023-05-07T05:33:34;16.20;99.90
49224;DHT22;35050;51.316;5.994;2023-05-07T05:36:00;16.20;99.90
49224;DHT22;35050;51.316;5.994;2023-05-07T05:38:26;16.30;99.90
49224;DHT22;35050;51.316;5.994;2023-05-07T05:40:52;16.30;99.90
49224;DHT22;35050;51.316;5.994;2023-05-07T05:43:17;16.30;99.90
49224;DHT22;35050;51.316;5.994;2023-05-07T05:45:43;16.40;99.90
49224;DHT22;35050;51.316;5.994;2023-05-07T05:48:08;16.40;99.90
49224;DHT22;35050;51.316;5.994;2023-05-07T05:50:34;16.50;99.90
49224;DHT22;35050;51.316;5.994;2023-05-07T05:53:03;16.50;99.90
49224;DHT22;35050;51.316;5.994;2023-05-07T05:55:29;16.50;99.90
49224;DHT22;35050;51.316;5.994;2023-05-07T05:57:54;16.50;99.90
49224;DHT22;35050;51.316;5.994;2023-05-07T06:00:20;16.40;99.90
49224;DHT22;35050;51.316;5.994;2023-05-07T06:02:48;16.40;99.90
49224;DHT22;35050;51.316;5.994;2023-05-07T06:05:14;16.40;99.90
49224;DHT22;35050;51.316;5.994;2023-05-07T06:07:40;16.40;99.90
49224;DHT22;35050;51.316;5.994;2023-05-07T06:10:06;16.40;99.90
49224;DHT22;35050;51.316;5.994;2023-05-07T06:12:32;16.40;99.90
49224;DHT22;35050;51.316;5.994;2023-05-07T06:14:57;16.40;99.90
49224;DHT22;35050;51.316;5.994;2023-05-07T06:17:23;16.40;99.90
49224;DHT22;35050;51.316;5.994;2023-05-07T06:19:48;16.50;99.90
49224;DHT22;35050;51.316;5.994;2023-05-07T06:22:14;16.40;99.90
49224;DHT22;35050;51.316;5.994;2023-05-07T06:24:40;16.60;99.90
49224;DHT22;35050;51.316;5.994;2023-05-07T06:27:06;16.70;99.90
49224;DHT22;35050;51.316;5.994;2023-05-07T06:29:31;16.70;99.90
49224;DHT22;35050;51.316;5.994;2023-05-07T06:32:09;16.70;99.90
49224;DHT22;35050;51.316;5.994;2023-05-07T06:34:35;16.80;99.90
49224;DHT22;35050;51.316;5.994;2023-05-07T06:37:01;16.90;99.90
49224;DHT22;35050;51.316;5.994;2023-05-07T06:39:27;17.00;99.90
49224;DHT22;35050;51.316;5.994;2023-05-07T06:41:53;17.00;99.90
49224;DHT22;35050;51.316;5.994;2023-05-07T06:44:19;17.10;99.90
49224;DHT22;35050;51.316;5.994;2023-05-07T06:46:44;17.00;99.90
49224;DHT22;35050;51.316;5.994;2023-05-07T06:49:12;17.00;99.90
49224;DHT22;35050;51.316;5.994;2023-05-07T06:51:37;17.00;99.90
49224;DHT22;35050;51.316;5.994;2023-05-07T06:54:03;17.10;99.90
49224;DHT22;35050;51.316;5.994;2023-05-07T06:56:30;17.20;99.90
49224;DHT22;35050;51.316;5.994;2023-05-07T06:58:56;17.10;99.90
49224;DHT22;35050;51.316;5.994;2023-05-07T07:01:21;17.30;99.90
49224;DHT22;35050;51.316;5.994;2023-05-07T07:03:47;17.30;99.90
49224;DHT22;35050;51.316;5.994;2023-05-07T07:06:13;17.50;99.90
49224;DHT22;35050;51.316;5.994;2023-05-07T07:08:38;17.60;99.90
49224;DHT22;35050;51.316;5.994;2023-05-07T07:11:05;17.70;99.90
49224;DHT22;35050;51.316;5.994;2023-05-07T07:13:31;17.80;99.90
49224;DHT22;35050;51.316;5.994;2023-05-07T07:15:56;17.80;99.90
49224;DHT22;35050;51.316;5.994;2023-05-07T07:18:22;17.90;99.90
49224;DHT22;35050;51.316;5.994;2023-05-07T07:20:48;18.00;99.90
49224;DHT22;35050;51.316;5.994;2023-05-07T07:23:13;18.00;99.90
49224;DHT22;35050;51.316;5.994;2023-05-07T07:25:39;18.00;99.90
49224;DHT22;35050;51.316;5.994;2023-05-07T07:28:05;18.10;99.90
49224;DHT22;35050;51.316;5.994;2023-05-07T07:30:31;18.10;99.90
49224;DHT22;35050;51.316;5.994;2023-05-07T07:32:57;18.20;99.90
49224;DHT22;35050;51.316;5.994;2023-05-07T07:35:28;18.30;99.90
49224;DHT22;35050;51.316;5.994;2023-05-07T07:37:53;18.30;99.90
49224;DHT22;35050;51.316;5.994;2023-05-07T07:40:19;18.20;99.90
49224;DHT22;35050;51.316;5.994;2023-05-07T07:42:45;18.30;99.90
49224;DHT22;35050;51.316;5.994;2023-05-07T07:45:11;18.30;99.90
49224;DHT22;35050;51.316;5.994;2023-05-07T07:47:37;18.30;99.90
49224;DHT22;35050;51.316;5.994;2023-05-07T07:50:03;18.20;99.90
49224;DHT22;35050;51.316;5.994;2023-05-07T07:52:29;18.30;99.90
49224;DHT22;35050;51.316;5.994;2023-05-07T07:54:55;18.40;99.90
49224;DHT22;35050;51.316;5.994;2023-05-07T07:57:20;18.50;99.90
49224;DHT22;35050;51.316;5.994;2023-05-07T07:59:46;18.70;99.90
49224;DHT22;35050;51.316;5.994;2023-05-07T08:02:11;18.80;99.90
49224;DHT22;35050;51.316;5.994;2023-05-07T08:04:37;18.80;99.90
49224;DHT22;35050;51.316;5.994;2023-05-07T08:07:03;18.70;99.90
49224;DHT22;35050;51.316;5.994;2023-05-07T08:09:28;18.90;99.90
49224;DHT22;35050;51.316;5.994;2023-05-07T08:11:54;18.90;99.90
49224;DHT22;35050;51.316;5.994;2023-05-07T08:14:20;19.10;99.90
49224;DHT22;35050;51.316;5.994;2023-05-07T08:16:46;19.10;99.90
49224;DHT22;35050;51.316;5.994;2023-05-07T08:19:11;19.30;99.90
49224;DHT22;35050;51.316;5.994;2023-05-07T08:21:40;19.30;99.90
49224;DHT22;35050;51.316;5.994;2023-05-07T08:24:06;19.50;99.90
49224;DHT22;35050;51.316;5.994;2023-05-07T08:26:32;19.60;99.90
49224;DHT22;35050;51.316;5.994;2023-05-07T08:28:57;19.80;99.90
49224;DHT22;35050;51.316;5.994;2023-05-07T08:31:23;19.60;99.90
49224;DHT22;35050;51.316;5.994;2023-05-07T08:33:50;19.90;99.90
49224;DHT22;35050;51.316;5.994;2023-05-07T08:36:15;20.10;99.90
49224;DHT22;35050;51.316;5.994;2023-05-07T08:38:41;20.20;99.90
49224;DHT22;35050;51.316;5.994;2023-05-07T08:41:10;20.30;99.90
49224;DHT22;35050;51.316;5.994;2023-05-07T08:43:37;20.20;99.90
49224;DHT22;35050;51.316;5.994;2023-05-07T08:46:04;20.10;99.90
49224;DHT22;35050;51.316;5.994;2023-05-07T08:48:31;20.20;99.90
49224;DHT22;35050;51.316;5.994;2023-05-07T08:50:58;20.40;99.90
49224;DHT22;35050;51.316;5.994;2023-05-07T08:53:24;20.30;99.90
49224;DHT22;35050;51.316;5.994;2023-05-07T08:55:51;20.60;99.90
49224;DHT22;35050;51.316;5.994;2023-05-07T08:58:17;20.90;99.90
49224;DHT22;35050;51.316;5.994;2023-05-07T09:00:43;20.80;99.90
49224;DHT22;35050;51.316;5.994;2023-05-07T09:03:08;21.20;99.90
49224;DHT22;35050;51.316;5.994;2023-05-07T09:05:37;21.30;99.90
49224;DHT22;35050;51.316;5.994;2023-05-07T09:08:03;21.30;99.90
49224;DHT22;35050;51.316;5.994;2023-05-07T09:10:33;21.60;99.90
49224;DHT22;35050;51.316;5.994;2023-05-07T09:12:59;21.50;99.90
49224;DHT22;35050;51.316;5.994;2023-05-07T09:15:25;21.60;99.90
49224;DHT22;35050;51.316;5.994;2023-05-07T09:17:51;21.70;99.90
49224;DHT22;35050;51.316;5.994;2023-05-07T09:20:16;21.80;99.90
49224;DHT22;35050;51.316;5.994;2023-05-07T09:22:42;21.60;99.90
49224;DHT22;35050;51.316;5.994;2023-05-07T09:25:09;21.70;99.90
49224;DHT22;35050;51.316;5.994;2023-05-07T09:27:35;21.50;99.90
49224;DHT22;35050;51.316;5.994;2023-05-07T09:30:05;21.60;99.90
49224;DHT22;35050;51.316;5.994;2023-05-07T09:32:35;21.80;99.90
49224;DHT22;35050;51.316;5.994;2023-05-07T09:35:01;21.70;99.90
49224;DHT22;35050;51.316;5.994;2023-05-07T09:37:30;21.60;99.90
49224;DHT22;35050;51.316;5.994;2023-05-07T09:39:56;22.00;99.90
49224;DHT22;35050;51.316;5.994;2023-05-07T09:42:25;22.30;99.90
49224;DHT22;35050;51.316;5.994;2023-05-07T09:44:52;22.10;99.90
49224;DHT22;35050;51.316;5.994;2023-05-07T09:47:19;22.40;99.90
49224;DHT22;35050;51.316;5.994;2023-05-07T09:49:47;22.30;99.90
49224;DHT22;35050;51.316;5.994;2023-05-07T09:52:13;22.30;99.90
49224;DHT22;35050;51.316;5.994;2023-05-07T09:54:40;22.30;99.90
49224;DHT22;35050;51.316;5.994;2023-05-07T09:57:10;22.10;99.90
49224;DHT22;35050;51.316;5.994;2023-05-07T09:59:37;21.70;99.90
49224;DHT22;35050;51.316;5.994;2023-05-07T10:02:04;21.80;99.90
49224;DHT22;35050;51.316;5.994;2023-05-07T10:04:31;21.90;99.90
49224;DHT22;35050;51.316;5.994;2023-05-07T10:06:57;21.70;99.90
49224;DHT22;35050;51.316;5.994;2023-05-07T10:09:25;21.70;99.90
49224;DHT22;35050;51.316;5.994;2023-05-07T10:11:51;21.90;99.90
49224;DHT22;35050;51.316;5.994;2023-05-07T10:14:17;21.80;99.90
49224;DHT22;35050;51.316;5.994;2023-05-07T10:16:44;21.70;99.90
49224;DHT22;35050;51.316;5.994;2023-05-07T10:19:10;21.80;99.90
49224;DHT22;35050;51.316;5.994;2023-05-07T10:21:36;21.80;99.90
49224;DHT22;35050;51.316;5.994;2023-05-07T10:24:09;21.80;99.90
49224;DHT22;35050;51.316;5.994;2023-05-07T10:26:41;21.90;99.90
49224;DHT22;35050;51.316;5.994;2023-05-07T10:29:14;21.90;99.90
49224;DHT22;35050;51.316;5.994;2023-05-07T10:34:48;22.20;99.90
49224;DHT22;35050;51.316;5.994;2023-05-07T10:37:16;22.30;99.90
49224;DHT22;35050;51.316;5.994;2023-05-07T10:39:42;22.50;99.90
49224;DHT22;35050;51.316;5.994;2023-05-07T10:42:12;22.60;99.90
49224;DHT22;35050;51.316;5.994;2023-05-07T10:44:38;22.70;99.90
49224;DHT22;35050;51.316;5.994;2023-05-07T10:52:21;22.80;99.90
49224;DHT22;35050;51.316;5.994;2023-05-07T10:57:40;22.90;99.90
49224;DHT22;35050;51.316;5.994;2023-05-07T11:05:24;23.70;99.90
49224;DHT22;35050;51.316;5.994;2023-05-07T11:07:59;23.80;99.90
49224;DHT22;35050;51.316;5.994;2023-05-07T11:13:14;24.10;99.90
49224;DHT22;35050;51.316;5.994;2023-05-07T11:15:47;24.10;99.90
49224;DHT22;35050;51.316;5.994;2023-05-07T11:18:14;23.80;99.90
49224;DHT22;35050;51.316;5.994;2023-05-07T11:20:47;23.90;99.90
49224;DHT22;35050;51.316;5.994;2023-05-07T11:26:05;23.80;99.90
49224;DHT22;35050;51.316;5.994;2023-05-07T11:28:40;23.40;99.90
49224;DHT22;35050;51.316;5.994;2023-05-07T11:31:06;23.80;99.90
49224;DHT22;35050;51.316;5.994;2023-05-07T11:33:32;23.90;99.90
49224;DHT22;35050;51.316;5.994;2023-05-07T11:35:59;23.80;99.90
49224;DHT22;35050;51.316;5.994;2023-05-07T11:38:25;23.60;99.90
49224;DHT22;35050;51.316;5.994;2023-05-07T11:40:56;23.90;99.90
49224;DHT22;35050;51.316;5.994;2023-05-07T11:43:22;23.90;99.90
49224;DHT22;35050;51.316;5.994;2023-05-07T11:45:49;23.60;99.90
49224;DHT22;35050;51.316;5.994;2023-05-07T11:48:15;23.80;99.90
49224;DHT22;35050;51.316;5.994;2023-05-07T11:50:51;24.10;99.90
49224;DHT22;35050;51.316;5.994;2023-05-07T11:53:20;24.30;99.90
49224;DHT22;35050;51.316;5.994;2023-05-07T11:55:52;24.40;99.90
49224;DHT22;35050;51.316;5.994;2023-05-07T11:58:21;24.40;99.90
49224;DHT22;35050;51.316;5.994;2023-05-07T12:00:51;24.20;99.90
49224;DHT22;35050;51.316;5.994;2023-05-07T12:03:16;24.10;99.90
49224;DHT22;35050;51.316;5.994;2023-05-07T12:05:44;24.00;99.90
49224;DHT22;35050;51.316;5.994;2023-05-07T12:08:17;24.10;99.90
49224;DHT22;35050;51.316;5.994;2023-05-07T12:10:48;24.10;99.90
49224;DHT22;35050;51.316;5.994;2023-05-07T12:13:24;24.10;99.90
49224;DHT22;35050;51.316;5.994;2023-05-07T12:15:55;23.80;99.90
49224;DHT22;35050;51.316;5.994;2023-05-07T12:18:21;23.90;99.90
49224;DHT22;35050;51.316;5.994;2023-05-07T12:20:48;24.00;99.90
49224;DHT22;35050;51.316;5.994;2023-05-07T12:23:14;24.10;99.90
49224;DHT22;35050;51.316;5.994;2023-05-07T12:25:41;23.90;99.90
49224;DHT22;35050;51.316;5.994;2023-05-07T12:28:16;23.90;99.90
49224;DHT22;35050;51.316;5.994;2023-05-07T12:30:43;23.90;99.90
49224;DHT22;35050;51.316;5.994;2023-05-07T12:33:10;23.50;99.90
49224;DHT22;35050;51.316;5.994;2023-05-07T12:35:38;23.40;99.90
49224;DHT22;35050;51.316;5.994;2023-05-07T12:38:11;23.40;99.90
49224;DHT22;35050;51.316;5.994;2023-05-07T12:40:38;23.40;99.90
49224;DHT22;35050;51.316;5.994;2023-05-07T12:43:04;23.00;99.90
49224;DHT22;35050;51.316;5.994;2023-05-07T12:45:29;23.10;99.90
49224;DHT22;35050;51.316;5.994;2023-05-07T12:47:56;23.00;99.90
49224;DHT22;35050;51.316;5.994;2023-05-07T12:50:26;22.90;99.90
49224;DHT22;35050;51.316;5.994;2023-05-07T12:52:56;22.80;99.90
49224;DHT22;35050;51.316;5.994;2023-05-07T12:55:21;22.80;99.90
49224;DHT22;35050;51.316;5.994;2023-05-07T12:57:50;22.80;99.90
49224;DHT22;35050;51.316;5.994;2023-05-07T13:00:17;22.90;99.90
49224;DHT22;35050;51.316;5.994;2023-05-07T13:02:43;22.70;99.90
49224;DHT22;35050;51.316;5.994;2023-05-07T13:05:12;22.70;99.90
49224;DHT22;35050;51.316;5.994;2023-05-07T13:07:38;22.80;99.90
49224;DHT22;35050;51.316;5.994;2023-05-07T13:10:04;22.70;99.90
49224;DHT22;35050;51.316;5.994;2023-05-07T13:12:30;22.70;99.90
49224;DHT22;35050;51.316;5.994;2023-05-07T13:14:55;22.60;99.90
49224;DHT22;35050;51.316;5.994;2023-05-07T13:17:21;22.60;99.90
49224;DHT22;35050;51.316;5.994;2023-05-07T13:19:47;22.40;99.90
49224;DHT22;35050;51.316;5.994;2023-05-07T13:22:12;22.40;99.90
49224;DHT22;35050;51.316;5.994;2023-05-07T13:24:38;22.40;99.90
49224;DHT22;35050;51.316;5.994;2023-05-07T13:27:07;22.10;99.90
49224;DHT22;35050;51.316;5.994;2023-05-07T13:29:32;22.30;99.90
49224;DHT22;35050;51.316;5.994;2023-05-07T13:31:58;21.90;99.90
49224;DHT22;35050;51.316;5.994;2023-05-07T13:34:24;21.50;99.90
49224;DHT22;35050;51.316;5.994;2023-05-07T13:36:49;21.60;99.90
49224;DHT22;35050;51.316;5.994;2023-05-07T13:39:15;21.50;99.90
49224;DHT22;35050;51.316;5.994;2023-05-07T13:41:41;21.00;99.90
49224;DHT22;35050;51.316;5.994;2023-05-07T13:44:07;21.00;99.90
49224;DHT22;35050;51.316;5.994;2023-05-07T13:46:32;20.80;99.90
49224;DHT22;35050;51.316;5.994;2023-05-07T13:48:58;20.80;99.90
49224;DHT22;35050;51.316;5.994;2023-05-07T13:51:24;20.80;99.90
49224;DHT22;35050;51.316;5.994;2023-05-07T13:53:50;20.90;99.90
49224;DHT22;35050;51.316;5.994;2023-05-07T13:56:15;20.70;99.90
49224;DHT22;35050;51.316;5.994;2023-05-07T13:58:41;20.50;99.90
49224;DHT22;35050;51.316;5.994;2023-05-07T14:01:07;20.30;99.90
49224;DHT22;35050;51.316;5.994;2023-05-07T14:03:32;20.00;99.90
49224;DHT22;35050;51.316;5.994;2023-05-07T14:05:59;20.20;99.90
49224;DHT22;35050;51.316;5.994;2023-05-07T14:08:27;20.00;99.90
49224;DHT22;35050;51.316;5.994;2023-05-07T14:10:53;20.00;99.90
49224;DHT22;35050;51.316;5.994;2023-05-07T14:13:18;20.20;99.90
49224;DHT22;35050;51.316;5.994;2023-05-07T14:15:44;20.30;99.90
49224;DHT22;35050;51.316;5.994;2023-05-07T14:18:12;20.00;99.90
49224;DHT22;35050;51.316;5.994;2023-05-07T14:20:38;20.10;99.90
49224;DHT22;35050;51.316;5.994;2023-05-07T14:23:04;20.10;99.90
49224;DHT22;35050;51.316;5.994;2023-05-07T14:25:29;20.30;99.90
49224;DHT22;35050;51.316;5.994;2023-05-07T14:27:55;20.50;99.90
49224;DHT22;35050;51.316;5.994;2023-05-07T14:30:21;20.60;99.90
49224;DHT22;35050;51.316;5.994;2023-05-07T14:32:50;20.60;99.90
49224;DHT22;35050;51.316;5.994;2023-05-07T14:35:16;20.90;99.90
49224;DHT22;35050;51.316;5.994;2023-05-07T14:37:42;20.80;99.90
49224;DHT22;35050;51.316;5.994;2023-05-07T14:40:08;21.00;99.90
49224;DHT22;35050;51.316;5.994;2023-05-07T14:42:34;21.10;99.90
49224;DHT22;35050;51.316;5.994;2023-05-07T14:45:00;21.40;99.90
49224;DHT22;35050;51.316;5.994;2023-05-07T14:47:25;21.50;99.90
49224;DHT22;35050;51.316;5.994;2023-05-07T14:49:51;21.80;99.90
49224;DHT22;35050;51.316;5.994;2023-05-07T14:52:18;22.10;99.90
49224;DHT22;35050;51.316;5.994;2023-05-07T14:54:44;22.10;99.90
49224;DHT22;35050;51.316;5.994;2023-05-07T14:57:10;22.60;99.90
49224;DHT22;35050;51.316;5.994;2023-05-07T14:59:39;22.60;99.90
49224;DHT22;35050;51.316;5.994;2023-05-07T15:02:05;22.30;99.90
49224;DHT22;35050;51.316;5.994;2023-05-07T15:04:33;22.60;99.90
49224;DHT22;35050;51.316;5.994;2023-05-07T15:06:59;22.40;99.90
49224;DHT22;35050;51.316;5.994;2023-05-07T15:09:24;22.70;99.90
49224;DHT22;35050;51.316;5.994;2023-05-07T15:11:50;22.80;99.90
49224;DHT22;35050;51.316;5.994;2023-05-07T15:14:15;23.00;99.90
49224;DHT22;35050;51.316;5.994;2023-05-07T15:16:41;23.30;99.90
49224;DHT22;35050;51.316;5.994;2023-05-07T15:19:07;23.50;99.90
49224;DHT22;35050;51.316;5.994;2023-05-07T15:21:32;23.60;99.90
49224;DHT22;35050;51.316;5.994;2023-05-07T15:24:00;23.60;99.90
49224;DHT22;35050;51.316;5.994;2023-05-07T15:26:26;23.70;99.90
49224;DHT22;35050;51.316;5.994;2023-05-07T15:28:52;23.30;99.90
49224;DHT22;35050;51.316;5.994;2023-05-07T15:31:17;22.80;99.90
49224;DHT22;35050;51.316;5.994;2023-05-07T15:33:43;22.90;99.90
49224;DHT22;35050;51.316;5.994;2023-05-07T15:36:10;22.90;99.90
49224;DHT22;35050;51.316;5.994;2023-05-07T15:38:36;22.90;99.90
49224;DHT22;35050;51.316;5.994;2023-05-07T15:41:01;22.90;99.90
49224;DHT22;35050;51.316;5.994;2023-05-07T15:43:27;22.90;99.90
49224;DHT22;35050;51.316;5.994;2023-05-07T15:45:53;22.60;99.90
49224;DHT22;35050;51.316;5.994;2023-05-07T15:48:18;22.70;99.90